Monte Nido, California
Current Conditions -  °F | °C
As of 3:51 PM on Wednesday 28 Jan 2015 (Local Time) from KVNY Reporting Station
Clear Clear  
Wind Chill: 69°   Ceiling: Unl
Heat Index: 69°   Visibility: 10mi
Dew Point: 49°   Wind: 7mph
Humidity: 49%   Direction: 350°N
Pressure: 30.08"   Gusts: NA
Location:  34.1257°N, 118.676°W
Report Text: KVNY 282351Z 35006KT 10SM CLR 21/09 A3008 RMK AO2 SLP180 T02060094 10222 20183 57003
Loading
Personal Weather Stations






























Interactive Weather Map New forecast layout! Learn more

10-Day Weather Forecast

Advertisements
Track Severe Weather on mobile